Annapolis, Illinois
Current Conditions -  °F | °C
As of 7:55 AM on Monday 24 Nov 2014 (Local Time) from KRSV Reporting Station
Overcast Overcast  
Wind Chill: 33°   Ceiling: 1800
Heat Index: 42°   Visibility: 10mi
Dew Point: 38°   Wind: 23mph
Humidity: 85%   Direction: 270°W
Pressure: 29.46"   Gusts: 29mph
Location:  39.14°N, 87.82°W
Report Text: KRSV 241355Z AUTO 27020G25KT 10SM BKN018 BKN027 OVC070 06/03 A2946 RMK AO2 T00560033
Loading
Personal Weather Stations






























Interactive Weather Map New forecast layout! Learn more

10-Day Weather Forecast

Advertisements
Track Severe Weather on mobile